Flood From: 19-02-2018 10:30 Until: 20-02-2018 06:00 warning for: Flood Level: Yellow info button

Although rather usual in this region, locally or potentially dangerous phenomena are expected. (such as local winds, summer thunderstorms, rising streams or high waves) Be aware and pay attention to the latest weather updates, especially if you carry out activities exposed to weather or close to a stream or shoreline. 


Meteo18 Weather Cam more information Meteo18 Weather Cam


Thunder radar more information blitzortung!


Rain radar more information rain snow radar


Visit our other weather sites:

Template documentation
and downloads

And another site



Weather Underground History page Text

Daily Summary for September 29, 2017 Units:  Metric    English   Both
« Previous Day
Next Day »
Daily Weekly Monthly Yearly Custom
  High: Low: Average:
Temperature: -17.8 °C -10.6 °C -7.5 °C
Dew Point: -17.8 °C -11.1 °C -9.8 °C
Humidity: Humidity % 49 % 79 %
Wind Speed: 0 km/h 0 km/h 2.4 km/h
Wind Gust: 0 km/h - -
Wind:- - SW
Pressure: 0 hPa 34510.1 hPa -
Precipitation: 0 mm    
Historical Graphs
 
 
Tabular Data for September 29, 2017
Time Temperature Dew Point Pressure Wind Wind Speed Wind Gust Humidity Rainfall Rate (Hourly)
-17.8 °C -17.8 °C 0 hPa Calm     Humidity % 0 mm
00:02 -9.3 °C -9.9 °C 34659.1 hPa Calm   5.1 km/h 93 % 0 mm
00:12 -9.3 °C -9.8 °C 34659.1 hPa Calm   2.6 km/h 94 % 0 mm
00:17 -9.3 °C -9.8 °C 34659.1 hPa Calm     94 % 0 mm
00:22 -9.3 °C -9.9 °C 34659.1 hPa Calm     93 % 0 mm
00:32 -9.3 °C -9.9 °C 34659.1 hPa Calm     93 % 0 mm
00:42 -9.3 °C -9.9 °C 34659.1 hPa Calm     93 % 0 mm
00:47 -9.4 °C -10 °C 34659.1 hPa Calm     93 % 0 mm
00:57 -9.5 °C -10.1 °C 34659.1 hPa Calm     93 % 0 mm
01:02 -9.6 °C -10.1 °C 34659.1 hPa Calm     94 % 0 mm
01:07 -9.6 °C -10.1 °C 34645.6 hPa Calm     94 % 0 mm
01:12 -9.6 °C -10.1 °C 34645.6 hPa Calm     94 % 0 mm
01:17 -9.6 °C -10.1 °C 34645.6 hPa Calm     94 % 0 mm
01:27 -9.7 °C -10.2 °C 34645.6 hPa Calm     94 % 0 mm
01:32 -9.6 °C -10.1 °C 34645.6 hPa Calm     95 % 0 mm
01:37 -9.6 °C -10.2 °C 34645.6 hPa Calm     94 % 0 mm
01:42 -9.7 °C -10.1 °C 34645.6 hPa Calm     95 % 0 mm
01:52 -9.7 °C -10.1 °C 34645.6 hPa Calm     95 % 0 mm
01:57 -9.7 °C -10.1 °C 34645.6 hPa Calm     95 % 0 mm
02:02 -9.8 °C -10.2 °C 34645.6 hPa Calm     95 % 0 mm
02:12 -9.9 °C -10.3 °C 34645.6 hPa Calm     95 % 0 mm
02:17 -9.9 °C -10.3 °C 34645.6 hPa Calm     95 % 0 mm
02:22 -9.9 °C -10.3 °C 34645.6 hPa Calm     95 % 0 mm
02:32 -9.9 °C -10.4 °C 34645.6 hPa Calm     95 % 0 mm
02:42 -9.9 °C -10.2 °C 34645.6 hPa Calm     96 % 0 mm
02:47 -9.8 °C -10.1 °C 34645.6 hPa Calm     96 % 0 mm
02:52 -9.8 °C -10.1 °C 34645.6 hPa Calm     96 % 0 mm
02:57 -9.8 °C -10.1 °C 34645.6 hPa Calm     96 % 0 mm
03:02 -9.7 °C -10.2 °C 34645.6 hPa Calm     95 % 0 mm
03:12 -9.8 °C -10.2 °C 34635.4 hPa Calm     95 % 0 mm
03:17 -9.8 °C -10.2 °C 34635.4 hPa Calm     95 % 0 mm
03:22 -9.7 °C -10.2 °C 34635.4 hPa Calm     95 % 0 mm
03:32 -9.9 °C -10.3 °C 34635.4 hPa Calm     95 % 0 mm
03:37 -9.8 °C -10.3 °C 34635.4 hPa Calm     95 % 0 mm
03:42 -9.8 °C -10.2 °C 34635.4 hPa Calm     95 % 0 mm
03:47 -9.8 °C -10.2 °C 34635.4 hPa Calm     95 % 0 mm
03:52 -9.7 °C -10.2 °C 34635.4 hPa Calm     95 % 0 mm
03:57 -9.7 °C -10.1 °C 34635.4 hPa Calm     95 % 0 mm
04:02 -9.7 °C -10.1 °C 34635.4 hPa Calm     95 % 0 mm
04:12 -9.7 °C -10.3 °C 34635.4 hPa Calm     94 % 0 mm
04:17 -9.7 °C -10.2 °C 34635.4 hPa Calm     94 % 0 mm
04:22 -9.6 °C -10.2 °C 34625.2 hPa Calm     94 % 0 mm
04:27 -9.6 °C -10.2 °C 34625.2 hPa Calm     93 % 0 mm
04:32 -9.6 °C -10.2 °C 34625.2 hPa Calm     93 % 0 mm
04:42 -9.7 °C -10.5 °C 34625.2 hPa Calm     91 % 0 mm
04:47 -9.8 °C -10.6 °C 34625.2 hPa Calm     92 % 0 mm
04:52 -9.9 °C -10.5 °C 34625.2 hPa Calm     93 % 0 mm
05:02 -9.9 °C -10.4 °C 34625.2 hPa Calm     94 % 0 mm
05:22 -9.9 °C -10.4 °C 34611.7 hPa Calm     94 % 0 mm
05:32 -9.9 °C -10.4 °C 34611.7 hPa Calm     94 % 0 mm
05:37 -9.9 °C -10.5 °C 34611.7 hPa Calm     94 % 0 mm
05:42 -10 °C -10.6 °C 34611.7 hPa Calm     94 % 0 mm
05:52 -10.1 °C -10.6 °C 34611.7 hPa Calm     94 % 0 mm
05:57 -10.2 °C -10.7 °C 34611.7 hPa Calm     94 % 0 mm
06:02 -10.2 °C -10.7 °C 34611.7 hPa Calm     94 % 0 mm
06:12 -10.2 °C -10.7 °C 34611.7 hPa Calm     95 % 0 mm
06:17 -10.2 °C -10.7 °C 34625.2 hPa Calm     95 % 0 mm
06:22 -10.2 °C -10.7 °C 34625.2 hPa Calm     95 % 0 mm
06:32 -10.2 °C -10.7 °C 34625.2 hPa Calm     95 % 0 mm
06:37 -10.2 °C -10.7 °C 34625.2 hPa Calm     95 % 0 mm
06:42 -10.2 °C -10.7 °C 34625.2 hPa Calm     95 % 0 mm
06:47 -10.2 °C -10.7 °C 34625.2 hPa Calm     95 % 0 mm
06:52 -10.2 °C -10.7 °C 34625.2 hPa Calm     95 % 0 mm
07:02 -10.2 °C -10.7 °C 34611.7 hPa Calm     95 % 0 mm
07:12 -10.3 °C -10.8 °C 34611.7 hPa Calm     95 % 0 mm
07:17 -10.3 °C -10.8 °C 34611.7 hPa Calm     95 % 0 mm
07:22 -10.3 °C -10.8 °C 34625.2 hPa Calm     95 % 0 mm
07:32 -10.4 °C -10.9 °C 34625.2 hPa Calm     95 % 0 mm
07:37 -10.4 °C -10.9 °C 34625.2 hPa Calm     95 % 0 mm
07:42 -10.4 °C -10.7 °C 34625.2 hPa Calm     96 % 0 mm
07:47 -10.4 °C -10.8 °C 34625.2 hPa Calm     95 % 0 mm
07:52 -10.4 °C -10.9 °C 34625.2 hPa Calm     95 % 0 mm
08:02 -10.6 °C -11.1 °C 34625.2 hPa Calm     95 % 0 mm
08:12 -10.4 °C -10.8 °C 34635.4 hPa Calm     96 % 0 mm
08:17 -10.4 °C -10.9 °C 34635.4 hPa Calm     95 % 0 mm
08:22 -10.4 °C -10.9 °C 34635.4 hPa Calm     95 % 0 mm
08:32 -10.3 °C -10.8 °C 34635.4 hPa Calm     95 % 0 mm
08:37 -10.3 °C -10.8 °C 34635.4 hPa Calm     95 % 0 mm
08:42 -10.2 °C -10.7 °C 34635.4 hPa Calm     95 % 0 mm
08:47 -10.2 °C -10.6 °C 34635.4 hPa Calm     95 % 0 mm
08:52 -10.2 °C -10.6 °C 34635.4 hPa Calm     95 % 0 mm
09:02 -10 °C -10.4 °C 34635.4 hPa Calm     95 % 0 mm
09:12 -9.9 °C -10.3 °C 34635.4 hPa Calm     95 % 0 mm
09:17 -9.9 °C -10.4 °C 34635.4 hPa Calm     94 % 0 mm
09:22 -9.9 °C -10.4 °C 34635.4 hPa Calm     94 % 0 mm
09:32 -9.8 °C -10.4 °C 34635.4 hPa Calm     94 % 0 mm
09:47 -9.6 °C -10.2 °C 34635.4 hPa Calm     93 % 0 mm
09:52 -9.5 °C -10.2 °C 34635.4 hPa Calm     92 % 0 mm
10:02 -9.2 °C -9.9 °C 34635.4 hPa Calm     92 % 0 mm
10:12 -8.8 °C -9.7 °C 34635.4 hPa Calm   5.1 km/h 90 % 0 mm
10:17 -8.5 °C -9.4 °C 34635.4 hPa Calm   5.1 km/h 90 % 0 mm
10:22 -8.4 °C -9.5 °C 34635.4 hPa SSE 2.6 km/h 5.1 km/h 88 % 0 mm
10:27 -8.3 °C -9.5 °C 34635.4 hPa Calm   5.1 km/h 87 % 0 mm
10:32 -8.1 °C -9.2 °C 34635.4 hPa Calm   5.1 km/h 88 % 0 mm
10:42 -7.7 °C -9.2 °C 34635.4 hPa SSW 2.6 km/h 5.1 km/h 85 % 0 mm
10:47 -7.7 °C -9.2 °C 34635.4 hPa SSE 5.1 km/h 10.3 km/h 85 % 0 mm
10:52 -7.7 °C -9.2 °C 34635.4 hPa SW 7.7 km/h 10.3 km/h 84 % 0 mm
11:02 -7.6 °C -9.1 °C 34635.4 hPa SE 2.6 km/h 10.3 km/h 84 % 0 mm
11:12 -7.3 °C -8.8 °C 34635.4 hPa SSW 7.7 km/h 10.3 km/h 84 % 0 mm
11:17 -7.1 °C -8.9 °C 34635.4 hPa SSW 5.1 km/h 12.9 km/h 81 % 0 mm
11:22 -7 °C -8.8 °C 34635.4 hPa WSW 7.7 km/h 12.9 km/h 81 % 0 mm
11:32 -6.9 °C -8.9 °C 34625.2 hPa SW 12.9 km/h 12.9 km/h 79 % 0 mm
11:37 -6.8 °C -8.9 °C 34625.2 hPa SW 5.1 km/h 12.9 km/h 79 % 0 mm
11:42 -6.7 °C -8.9 °C 34625.2 hPa SW 2.6 km/h 12.9 km/h 78 % 0 mm
11:47 -6.5 °C -8.8 °C 34625.2 hPa SW 2.6 km/h 12.9 km/h 77 % 0 mm
11:52 -6.4 °C -8.8 °C 34625.2 hPa SW 7.7 km/h 12.9 km/h 77 % 0 mm
11:57 -6.3 °C -8.7 °C 34611.7 hPa WSW 5.1 km/h 10.3 km/h 76 % 0 mm
12:02 -6.1 °C -8.5 °C 34611.7 hPa Calm   10.3 km/h 76 % 0 mm
12:07 -5.9 °C -8.6 °C 34611.7 hPa SSW 2.6 km/h 7.7 km/h 74 % 0 mm
12:12 -5.7 °C -8.7 °C 34611.7 hPa SE 5.1 km/h 7.7 km/h 72 % 0 mm
12:17 -5.7 °C -8.7 °C 34611.7 hPa Calm   5.1 km/h 71 % 0 mm
12:22 -5.6 °C -8.7 °C 34611.7 hPa Calm   5.1 km/h 71 % 0 mm
12:32 -5.6 °C -8.7 °C 34611.7 hPa Calm   7.7 km/h 71 % 0 mm
12:37 -5.4 °C -8.5 °C 34601.5 hPa SSW 5.1 km/h 7.7 km/h 71 % 0 mm
12:42 -5.3 °C -8.7 °C 34601.5 hPa Calm   12.9 km/h 68 % 0 mm
12:47 -5.1 °C -8.8 °C 34601.5 hPa South 10.3 km/h 12.9 km/h 66 % 0 mm
12:57 -5.1 °C -9.2 °C 34601.5 hPa South 7.7 km/h 18.2 km/h 63 % 0 mm
13:02 -4.9 °C -9.1 °C 34601.5 hPa West 2.6 km/h 18.2 km/h 63 % 0 mm
13:12 -4.8 °C -9.2 °C 34591.4 hPa SW 12.9 km/h 23.3 km/h 61 % 0 mm
13:17 -4.8 °C -9.1 °C 34591.4 hPa SSW 12.9 km/h 23.3 km/h 62 % 0 mm
13:22 -4.8 °C -9.1 °C 34591.4 hPa SSW 7.7 km/h 25.9 km/h 62 % 0 mm
13:32 -4.7 °C -8.9 °C 34591.4 hPa West 10.3 km/h 25.9 km/h 62 % 0 mm
13:42 -4.7 °C -9.2 °C 34591.4 hPa SSW 10.3 km/h 23.3 km/h 60 % 0 mm
13:52 -4.6 °C -9.1 °C 34591.4 hPa SW 15.6 km/h 23.3 km/h 60 % 0 mm
14:02 -4.4 °C -9.2 °C 34577.8 hPa SSW 7.7 km/h 20.8 km/h 59 % 0 mm
14:07 -4.3 °C -9.4 °C 34577.8 hPa SSW 7.7 km/h 20.8 km/h 57 % 0 mm
14:12 -4.3 °C -9.3 °C 34577.8 hPa SE 10.3 km/h 23.3 km/h 57 % 0 mm
14:22 -4.2 °C -9.1 °C 34567.7 hPa WSW 2.6 km/h 25.9 km/h 58 % 0 mm
14:32 -4.2 °C -9.4 °C 34567.7 hPa WSW 10.3 km/h 20.8 km/h 56 % 0 mm
14:42 -4.1 °C -9.3 °C 34567.7 hPa SW 10.3 km/h 23.3 km/h 56 % 0 mm
14:47 -4.1 °C -9.3 °C 34554.1 hPa SW 2.6 km/h 23.3 km/h 56 % 0 mm
14:52 -4 °C -9.4 °C 34554.1 hPa WNW 2.6 km/h 23.3 km/h 55 % 0 mm
15:02 -3.8 °C -9.5 °C 34554.1 hPa SW 5.1 km/h 23.3 km/h 53 % 0 mm
15:12 -3.9 °C -9.4 °C 34554.1 hPa SSW 7.7 km/h 23.3 km/h 54 % 0 mm
15:17 -3.8 °C -9.2 °C 34554.1 hPa WSW 12.9 km/h 23.3 km/h 55 % 0 mm
15:22 -3.8 °C -9.4 °C 34554.1 hPa Calm   25.9 km/h 54 % 0 mm
15:32 -3.7 °C -9.3 °C 34554.1 hPa WSW 15.6 km/h 25.9 km/h 54 % 0 mm
15:42 -3.7 °C -9.8 °C 34554.1 hPa SSW 7.7 km/h 25.9 km/h 51 % 0 mm
15:47 -3.7 °C -9.8 °C 34544 hPa West 10.3 km/h 25.9 km/h 51 % 0 mm
15:57 -3.8 °C -9.7 °C 34544 hPa WSW 12.9 km/h 25.9 km/h 52 % 0 mm
16:02 -3.8 °C -9.8 °C 34544 hPa SW 5.1 km/h 25.9 km/h 51 % 0 mm
16:12 -3.7 °C -9.6 °C 34544 hPa WSW 10.3 km/h 23.3 km/h 52 % 0 mm
16:22 -3.7 °C -9.7 °C 34544 hPa West 7.7 km/h 12.9 km/h 51 % 0 mm
16:32 -3.8 °C -9.7 °C 34533.8 hPa SW 12.9 km/h 18.2 km/h 52 % 0 mm
16:42 -3.8 °C -9.7 °C 34533.8 hPa SW 2.6 km/h 23.3 km/h 52 % 0 mm
16:47 -3.9 °C -9.6 °C 34533.8 hPa WSW 5.1 km/h 23.3 km/h 53 % 0 mm
16:52 -4 °C -9.5 °C 34533.8 hPa SW 7.7 km/h 18.2 km/h 54 % 0 mm
16:57 -3.9 °C -9.2 °C 34533.8 hPa SW 7.7 km/h 18.2 km/h 56 % 0 mm
17:02 -3.9 °C -9.6 °C 34533.8 hPa WSW 5.1 km/h 15.6 km/h 53 % 0 mm
17:12 -3.6 °C -9.4 °C 34533.8 hPa Calm   15.6 km/h 52 % 0 mm
17:17 -3.2 °C -9.4 °C 34533.8 hPa Calm   10.3 km/h 50 % 0 mm
17:22 -3.1 °C -9.4 °C 34533.8 hPa SSW 10.3 km/h 10.3 km/h 50 % 0 mm
17:27 -3.2 °C -9.7 °C 34533.8 hPa WSW 2.6 km/h 12.9 km/h 49 % 0 mm
17:32 -3.3 °C -9.3 °C 34533.8 hPa SW 7.7 km/h 12.9 km/h 51 % 0 mm
17:37 -3.4 °C -9.6 °C 34533.8 hPa SW 5.1 km/h 15.6 km/h 50 % 0 mm
17:42 -3.4 °C -9.7 °C 34533.8 hPa WSW 10.3 km/h 15.6 km/h 50 % 0 mm
17:47 -3.6 °C -9.7 °C 34520.3 hPa West 7.7 km/h 15.6 km/h 51 % 0 mm
17:52 -3.7 °C -9.6 °C 34520.3 hPa SW 7.7 km/h 15.6 km/h 52 % 0 mm
18:02 -3.7 °C -9.9 °C 34520.3 hPa SW 5.1 km/h 12.9 km/h 50 % 0 mm
18:07 -3.7 °C -9.8 °C 34533.8 hPa WSW 5.1 km/h 12.9 km/h 51 % 0 mm
18:12 -3.6 °C -9.3 °C 34520.3 hPa SSW 2.6 km/h 12.9 km/h 53 % 0 mm
18:17 -3.5 °C -9.4 °C 34520.3 hPa WSW 5.1 km/h 12.9 km/h 52 % 0 mm
18:22 -3.5 °C -9.6 °C 34520.3 hPa West 2.6 km/h 12.9 km/h 51 % 0 mm
18:32 -3.6 °C -9.6 °C 34533.8 hPa WSW 2.6 km/h 12.9 km/h 51 % 0 mm
18:37 -3.7 °C -9.7 °C 34533.8 hPa WSW 5.1 km/h 7.7 km/h 51 % 0 mm
18:42 -3.9 °C -9.9 °C 34533.8 hPa SW 7.7 km/h 7.7 km/h 51 % 0 mm
18:52 -4.2 °C -9.8 °C 34533.8 hPa WSW 2.6 km/h 10.3 km/h 53 % 0 mm
18:57 -4.3 °C -9.7 °C 34533.8 hPa Calm   10.3 km/h 55 % 0 mm
19:02 -4.6 °C -9.4 °C 34533.8 hPa Calm   10.3 km/h 58 % 0 mm
19:12 -5.1 °C -8.9 °C 34533.8 hPa Calm   7.7 km/h 65 % 0 mm
19:17 -5.4 °C -8.9 °C 34533.8 hPa WNW 2.6 km/h 2.6 km/h 67 % 0 mm
19:22 -5.6 °C -8.9 °C 34533.8 hPa WNW 2.6 km/h 2.6 km/h 69 % 0 mm
19:27 -5.8 °C -8.9 °C 34533.8 hPa WNW 2.6 km/h 2.6 km/h 70 % 0 mm
19:32 -5.7 °C -8.9 °C 34533.8 hPa WNW 2.6 km/h 5.1 km/h 70 % 0 mm
19:37 -5.8 °C -8.8 °C 34533.8 hPa Calm   5.1 km/h 71 % 0 mm
19:47 -5.8 °C -9.3 °C 34544 hPa Calm   2.6 km/h 68 % 0 mm
19:52 -5.8 °C -9.3 °C 34544 hPa Calm   2.6 km/h 67 % 0 mm
20:02 -6 °C -9.2 °C 34544 hPa Calm   5.1 km/h 70 % 0 mm
20:07 -6.1 °C -9.2 °C 34544 hPa Calm   5.1 km/h 70 % 0 mm
20:12 -5.9 °C -9.3 °C 34533.8 hPa Calm   5.1 km/h 68 % 0 mm
20:22 -6.3 °C -9.2 °C 34544 hPa WNW 5.1 km/h   72 % 0 mm
20:32 -6.8 °C -9.3 °C 34533.8 hPa Calm   5.1 km/h 76 % 0 mm
20:42 -6.9 °C -9.2 °C 34533.8 hPa Calm   5.1 km/h 77 % 0 mm
20:47 -6.9 °C -9.1 °C 34533.8 hPa Calm   2.6 km/h 78 % 0 mm
20:52 -7.1 °C -9.2 °C 34533.8 hPa Calm   2.6 km/h 78 % 0 mm
21:02 -7.2 °C -9.2 °C 34533.8 hPa Calm     79 % 0 mm
21:12 -7.4 °C -9.3 °C 34533.8 hPa Calm     80 % 0 mm
21:17 -7.6 °C -9.3 °C 34533.8 hPa Calm     82 % 0 mm
21:22 -7.7 °C -9.3 °C 34533.8 hPa WNW 2.6 km/h 2.6 km/h 83 % 0 mm
21:32 -7.7 °C -9.4 °C 34533.8 hPa Calm   5.1 km/h 82 % 0 mm
21:37 -7.7 °C -9.3 °C 34520.3 hPa Calm   5.1 km/h 83 % 0 mm
21:42 -7.7 °C -9.3 °C 34520.3 hPa Calm   2.6 km/h 83 % 0 mm
21:47 -7.8 °C -9.4 °C 34520.3 hPa WNW 2.6 km/h 2.6 km/h 83 % 0 mm
21:52 -8 °C -9.4 °C 34520.3 hPa WNW 5.1 km/h 5.1 km/h 85 % 0 mm
21:57 -8.1 °C -9.5 °C 34520.3 hPa WNW 2.6 km/h 5.1 km/h 85 % 0 mm
22:02 -8 °C -9.5 °C 34533.8 hPa WNW 2.6 km/h 5.1 km/h 84 % 0 mm
22:12 -8.1 °C -9.4 °C 34520.3 hPa Calm   5.1 km/h 86 % 0 mm
22:17 -8.1 °C -9.4 °C 34520.3 hPa Calm   2.6 km/h 86 % 0 mm
22:22 -8.1 °C -9.5 °C 34533.8 hPa Calm   2.6 km/h 85 % 0 mm
22:27 -8.1 °C -9.5 °C 34533.8 hPa WNW 2.6 km/h   85 % 0 mm
22:32 -8.1 °C -9.5 °C 34520.3 hPa Calm   2.6 km/h 85 % 0 mm
22:42 -7.9 °C -9.3 °C 34520.3 hPa North 2.6 km/h 2.6 km/h 86 % 0 mm
22:47 -8 °C -9.4 °C 34533.8 hPa Calm   5.1 km/h 85 % 0 mm
22:52 -8.1 °C -9.4 °C 34533.8 hPa NNW 2.6 km/h 5.1 km/h 86 % 0 mm
22:57 -8.2 °C -9.5 °C 34533.8 hPa Calm   2.6 km/h 86 % 0 mm
23:02 -8.3 °C -9.5 °C 34520.3 hPa Calm   2.6 km/h 87 % 0 mm
23:12 -8.3 °C -9.6 °C 34520.3 hPa Calm   2.6 km/h 86 % 0 mm
23:17 -8.2 °C -9.6 °C 34520.3 hPa North 2.6 km/h 2.6 km/h 86 % 0 mm
23:22 -8.1 °C -9.5 °C 34510.1 hPa Calm   2.6 km/h 85 % 0 mm
23:32 -8 °C -9.5 °C 34510.1 hPa Calm   2.6 km/h 84 % 0 mm
23:42 -8.2 °C -9.5 °C 34510.1 hPa Calm   2.6 km/h 86 % 0 mm
23:52 -8.2 °C -9.6 °C 34510.1 hPa WNW 2.6 km/h 2.6 km/h 86 % 0 mm
23:57 -8.3 °C -9.6 °C 34510.1 hPa Calm     87 % 0 mm
Meteo18
Compliments of Weather Underground - 4 mb

Script developed by  Jim McMurry - jmcmurry@mwt.net Adapted for the template by  Wim van der Kuil - Leuven-Template.eu

You find our weather info also at:

European Weather Network

Weather Underground

Equipment we use:

Weather-station
Davis Vue

Weather-program
Meteobridge

Weather-server
Raspberry PI 2 B+

Provider
1 and 1

Davis Vue

Meteobridge

Raspberry PI 2 B+

1 and 1